Terminal Aerodrome Forecast
Issued by NWS

Home | Current Version | Previous Version | Text Only | Print | Product List | Glossary On
Versions: 1 2 3 4 5 6 7 8 9 10 11 12 13 14 15 16 17
000
FTUS45 KLKN 211120
TAFEKO
TAF
KEKO 211120Z 2112/2212 20009KT P6SM -RA SCT010 OVC020
     FM211600 25011KT 6SM -RA SCT010 BKN020 OVC035
     FM212200 32009KT P6SM -RA SCT020 BKN030 OVC050
     FM220400 24006KT P6SM VCSH BKN040 BKN080=

USA.gov is the U.S. government's official web portal to all federal, state and local government web resources and services.